Time;durP1;ratioP1;P1;durP2;ratioP2;P2;SDS_P1;SDS_P2;PMS_P1;PMS_P2;Temp;Humidity;BMP_temperature;BMP_pressure;BME280_temperature;BME280_humidity;BME280_pressure;Samples;Min_cycle;Max_cycle;Signal;HPM_P1;HPM_P2
2023/09/28 00:00:38;;;;;;;3.85;3.13;;;;;;;18.05;85.68;100905.00;5026971;28;20025;-69
2023/09/28 00:03:05;;;;;;;6.63;3.60;;;;;;;18.16;84.72;100900.22;5026071;28;20552;-70
2023/09/28 00:05:30;;;;;;;4.80;3.72;;;;;;;18.25;83.93;100890.28;5032941;28;20048;-70
2023/09/28 00:07:56;;;;;;;4.93;3.85;;;;;;;18.18;84.65;100898.38;5036890;28;20033;-70
2023/09/28 00:10:22;;;;;;;9.38;3.83;;;;;;;18.17;85.13;100905.38;5025809;28;20033;-69
2023/09/28 00:12:50;;;;;;;6.75;3.80;;;;;;;18.19;84.76;100907.97;5025138;28;20054;-70
2023/09/28 00:15:16;;;;;;;5.40;4.13;;;;;;;18.15;84.97;100903.75;5026659;28;20712;-70
2023/09/28 00:17:42;;;;;;;5.90;4.22;;;;;;;18.12;85.16;100923.03;5038440;28;20079;-69
2023/09/28 00:20:17;;;;;;;5.38;3.78;;;;;;;18.12;85.33;100940.47;5032591;28;20057;-69
2023/09/28 00:22:46;;;;;;;15.77;4.70;;;;;;;18.10;85.45;100926.59;5029249;28;20037;-70
2023/09/28 00:25:12;;;;;;;4.93;3.92;;;;;;;18.09;85.51;100936.22;5038389;28;20040;-69
2023/09/28 00:27:39;;;;;;;5.95;4.07;;;;;;;18.06;85.89;100930.22;5031173;28;20094;-69
2023/09/28 00:30:42;;;;;;;8.57;4.10;;;;;;;18.03;86.09;100928.59;5027503;28;20049;-70
2023/09/28 00:33:00;;;;;;;5.15;4.05;;;;;;;18.02;86.32;100915.59;5021083;28;20053;-69
2023/09/28 00:35:26;;;;;;;5.07;3.95;;;;;;;18.07;86.07;100917.13;5023972;28;20511;-70
2023/09/28 00:37:52;;;;;;;6.90;3.95;;;;;;;18.11;85.61;100910.84;5030006;28;20037;-69
2023/09/28 00:40:22;;;;;;;3.92;3.53;;;;;;;18.11;85.73;100925.69;5025344;28;20462;-69
2023/09/28 04:01:07;;;;;;;6.13;4.07;;;;;;;16.31;97.14;101042.03;5026958;28;20600;-62
2023/09/28 04:03:32;;;;;;;5.50;4.20;;;;;;;16.26;97.22;101038.72;5020097;28;20036;-62
2023/09/28 04:05:57;;;;;;;7.65;4.40;;;;;;;16.22;97.73;101045.75;5029961;28;20479;-62
2023/09/28 04:08:23;;;;;;;4.70;3.90;;;;;;;16.17;98.00;101046.78;5026530;28;20047;-62
2023/09/28 04:10:50;;;;;;;5.03;3.72;;;;;;;16.12;98.29;101052.09;5025792;28;20053;-62
2023/09/28 04:13:15;;;;;;;4.80;4.05;;;;;;;16.06;98.74;101051.41;5026229;28;20030;-62
2023/09/28 04:15:40;;;;;;;4.75;3.67;;;;;;;16.02;98.82;101057.63;5025634;28;20411;-62
2023/09/28 04:18:07;;;;;;;5.72;3.92;;;;;;;15.99;99.28;101057.69;5035414;28;20032;-60
2023/09/28 04:20:35;;;;;;;4.82;4.20;;;;;;;15.95;99.34;101063.88;5028537;28;20123;-60
2023/09/28 04:23:05;;;;;;;4.45;3.88;;;;;;;15.91;99.56;101054.44;5034796;28;20408;-60
2023/09/28 04:25:31;;;;;;;5.72;4.00;;;;;;;15.88;99.44;101050.13;5023719;28;20041;-60
2023/09/28 04:27:56;;;;;;;8.07;5.35;;;;;;;15.86;99.86;101064.97;5026177;28;20060;-60
2023/09/28 04:30:22;;;;;;;7.85;4.90;;;;;;;15.84;100.00;101071.97;5026950;28;20468;-60
2023/09/28 04:32:47;;;;;;;6.57;4.63;;;;;;;15.80;100.00;101082.50;5028947;28;20045;-60
2023/09/28 04:35:13;;;;;;;6.80;5.10;;;;;;;15.76;100.00;101081.75;5026065;28;20029;-63
2023/09/28 04:37:38;;;;;;;4.80;4.20;;;;;;;15.74;100.00;101076.56;5025877;28;20393;-65
2023/09/28 04:40:05;;;;;;;7.05;4.32;;;;;;;15.69;100.00;101074.97;5028621;28;20126;-64
2023/09/28 04:42:30;;;;;;;6.07;4.15;;;;;;;15.65;100.00;101082.00;5027753;28;20017;-65
2023/09/28 04:44:55;;;;;;;5.95;4.82;;;;;;;15.59;100.00;101078.63;5024885;28;20030;-64
2023/09/28 04:47:21;;;;;;;6.22;4.43;;;;;;;15.55;100.00;101079.63;5026269;28;20588;-65
2023/09/28 04:49:46;;;;;;;6.40;4.30;;;;;;;15.52;100.00;101088.34;5025953;28;20855;-63
2023/09/28 04:52:13;;;;;;;6.60;4.60;;;;;;;15.50;100.00;101084.91;5026358;28;20750;-63
2023/09/28 04:54:39;;;;;;;7.40;4.63;;;;;;;15.47;100.00;101079.78;5025775;28;20515;-63
2023/09/28 04:57:05;;;;;;;5.45;4.50;;;;;;;15.45;100.00;101081.56;5026162;28;20053;-65
2023/09/28 04:59:30;;;;;;;10.75;5.10;;;;;;;15.43;100.00;101072.94;5025413;28;20044;-64
2023/09/28 05:01:57;;;;;;;4.80;4.30;;;;;;;15.40;100.00;101073.03;5025444;28;20053;-65
2023/09/28 05:04:22;;;;;;;5.97;4.68;;;;;;;15.36;100.00;101071.38;5025163;28;20037;-64
2023/09/28 05:06:47;;;;;;;6.55;4.43;;;;;;;15.35;100.00;101076.59;5025350;28;20095;-65
2023/09/28 05:09:13;;;;;;;6.95;4.47;;;;;;;15.33;100.00;101074.03;5025985;28;20126;-65
2023/09/28 05:11:39;;;;;;;4.82;4.20;;;;;;;15.31;100.00;101077.56;5025316;28;20115;-65
2023/09/28 05:14:04;;;;;;;7.93;5.30;;;;;;;15.30;100.00;101073.25;5025472;28;20045;-65
2023/09/28 05:16:30;;;;;;;8.23;5.57;;;;;;;15.30;100.00;101073.25;5028830;28;20098;-70
2023/09/28 05:18:55;;;;;;;10.40;6.13;;;;;;;15.31;100.00;101088.00;5030423;28;20065;-69
2023/09/28 05:21:20;;;;;;;8.70;5.57;;;;;;;15.27;100.00;101091.53;5027416;28;20017;-70
2023/09/28 05:23:46;;;;;;;7.70;5.80;;;;;;;15.26;100.00;101084.63;5032831;28;20377;-70
2023/09/28 05:26:11;;;;;;;8.52;6.05;;;;;;;15.27;100.00;101088.94;5026471;28;20686;-69
2023/09/28 05:28:37;;;;;;;9.27;5.85;;;;;;;15.26;100.00;101088.06;5029815;28;20389;-69
2023/09/28 05:31:03;;;;;;;9.52;7.15;;;;;;;15.23;100.00;101098.56;5034073;28;20396;-69
2023/09/28 05:33:29;;;;;;;8.45;5.95;;;;;;;15.23;100.00;101102.03;5033568;28;20118;-70
2023/09/28 05:35:54;;;;;;;11.02;5.97;;;;;;;15.21;100.00;101098.63;5025704;28;20548;-69
2023/09/28 05:38:20;;;;;;;8.02;6.15;;;;;;;15.19;100.00;101091.72;5026046;28;20191;-70
2023/09/28 05:40:46;;;;;;;7.95;5.97;;;;;;;15.16;100.00;101089.19;5024783;28;20029;-64
2023/09/28 05:43:11;;;;;;;8.20;5.57;;;;;;;15.15;100.00;101092.69;5027152;28;20037;-69
2023/09/28 05:45:38;;;;;;;8.23;6.07;;;;;;;15.15;100.00;101090.94;5031464;28;20040;-69
2023/09/28 05:48:03;;;;;;;9.02;5.72;;;;;;;15.14;100.00;101089.22;5026057;28;20037;-69
2023/09/28 05:50:29;;;;;;;10.43;5.88;;;;;;;15.17;100.00;101093.50;5025584;28;20040;-69
2023/09/28 05:52:56;;;;;;;8.57;5.90;;;;;;;15.19;100.00;101097.81;5024740;28;20412;-69
2023/09/28 05:55:22;;;;;;;8.95;6.30;;;;;;;15.22;100.00;101117.72;5026029;28;20716;-69
2023/09/28 05:57:47;;;;;;;8.13;5.60;;;;;;;15.25;100.00;101104.63;5025449;28;20029;-69
2023/09/28 06:00:15;;;;;;;8.20;5.93;;;;;;;15.28;100.00;101116.72;5028506;28;20064;-69
2023/09/28 06:02:41;;;;;;;9.32;5.65;;;;;;;15.30;100.00;101110.56;5024916;28;20037;-69
2023/09/28 06:05:07;;;;;;;12.57;6.60;;;;;;;15.33;100.00;101118.31;5025920;28;20100;-70
2023/09/28 06:07:32;;;;;;;10.77;6.07;;;;;;;15.39;100.00;101122.53;5025488;28;20048;-70
2023/09/28 06:09:58;;;;;;;7.60;5.15;;;;;;;15.45;100.00;101143.22;5025583;28;20033;-68
2023/09/28 06:12:23;;;;;;;8.80;5.63;;;;;;;15.49;100.00;101142.28;5026969;28;20086;-70
2023/09/28 06:14:49;;;;;;;10.00;5.68;;;;;;;15.54;100.00;101151.72;5034113;28;20123;-70
2023/09/28 06:17:14;;;;;;;8.27;5.15;;;;;;;15.60;100.00;101146.34;5029145;28;20163;-69
2023/09/28 06:19:40;;;;;;;10.98;6.05;;;;;;;15.65;100.00;101149.75;5031430;28;20055;-69
2023/09/28 06:22:09;;;;;;;9.63;6.00;;;;;;;15.72;100.00;101155.69;5036141;28;20838;-69
2023/09/28 06:24:36;;;;;;;12.55;6.55;;;;;;;15.81;100.00;101159.81;5029960;28;20107;-60
2023/09/28 06:27:01;;;;;;;10.80;6.07;;;;;;;15.90;100.00;101163.06;5027839;28;20060;-60
2023/09/28 06:29:26;;;;;;;9.45;6.95;;;;;;;15.96;100.00;101160.31;5027718;28;20659;-60
2023/09/28 06:31:52;;;;;;;7.30;5.57;;;;;;;16.02;100.00;101160.16;5027966;28;20044;-60
2023/09/28 06:34:17;;;;;;;13.45;6.53;;;;;;;16.05;100.00;101165.31;5025031;28;20040;-60
2023/09/28 06:36:42;;;;;;;5.80;5.20;;;;;;;16.08;100.00;101157.41;5033264;28;20068;-60
2023/09/28 06:39:10;;;;;;;10.85;5.90;;;;;;;16.13;100.00;101168.56;5029084;28;20021;-60
2023/09/28 06:41:37;;;;;;;8.07;5.28;;;;;;;16.18;100.00;101171.91;5032440;28;20042;-64
2023/09/28 06:44:02;;;;;;;7.25;4.85;;;;;;;16.24;100.00;101178.72;5025212;28;20052;-63
2023/09/28 06:46:28;;;;;;;8.27;5.18;;;;;;;16.30;100.00;101170.75;5013052;28;20029;-61
2023/09/28 06:48:54;;;;;;;11.93;6.93;;;;;;;16.40;100.00;101172.25;5028733;28;20361;-61
2023/09/28 06:51:22;;;;;;;15.35;6.68;;;;;;;16.51;100.00;101175.41;5028813;28;20512;-61
2023/09/28 06:53:47;;;;;;;12.50;5.93;;;;;;;16.63;100.00;101175.09;5027948;28;20938;-61
2023/09/28 06:56:12;;;;;;;8.63;6.57;;;;;;;16.73;100.00;101178.31;5028771;28;20120;-60
2023/09/28 06:58:38;;;;;;;7.88;5.00;;;;;;;16.79;100.00;101173.84;5031133;28;20512;-59
2023/09/28 07:01:03;;;;;;;10.52;5.35;;;;;;;16.85;100.00;101171.06;5028596;28;20798;-60
2023/09/28 07:03:31;;;;;;;7.60;5.07;;;;;;;16.91;100.00;101179.63;5022161;28;20049;-60
2023/09/28 07:05:56;;;;;;;8.48;5.55;;;;;;;16.98;100.00;101179.38;5027279;28;20029;-60
2023/09/28 07:08:22;;;;;;;9.77;5.45;;;;;;;17.07;100.00;101186.09;5028980;28;20091;-60
2023/09/28 07:10:47;;;;;;;5.47;4.55;;;;;;;17.17;99.43;101191.03;5027320;28;20096;-63
2023/09/28 07:13:12;;;;;;;8.10;4.35;;;;;;;17.28;98.33;101188.97;5035148;28;20033;-64
2023/09/28 07:15:38;;;;;;;6.05;4.38;;;;;;;17.38;97.90;101194.78;5029105;28;20487;-63
2023/09/28 07:18:03;;;;;;;7.93;4.88;;;;;;;17.48;96.82;101192.75;5028974;28;20037;-64
2023/09/28 07:20:30;;;;;;;7.90;4.38;;;;;;;17.54;96.83;101192.56;5027515;28;20033;-64
2023/09/28 07:22:56;;;;;;;6.20;3.72;;;;;;;17.59;96.69;101194.16;5035384;28;20037;-64
2023/09/28 07:25:22;;;;;;;7.60;4.18;;;;;;;17.66;96.47;101207.91;5028314;28;20495;-61
2023/09/28 07:27:52;;;;;;;7.05;4.28;;;;;;;17.74;95.62;101203.28;5027605;28;20029;-61
2023/09/28 07:30:22;;;;;;;6.50;4.40;;;;;;;17.83;95.33;101211.72;5028563;28;20035;-63
2023/09/28 07:32:49;;;;;;;4.88;3.70;;;;;;;17.91;94.74;101208.88;5025949;28;20191;-63
2023/09/28 07:35:15;;;;;;;5.55;3.67;;;;;;;17.98;94.43;101210.41;5027370;28;20029;-64
2023/09/28 07:37:44;;;;;;;6.50;4.13;;;;;;;18.06;92.72;101207.53;5027730;28;20508;-63
2023/09/28 07:40:12;;;;;;;5.95;4.00;;;;;;;18.15;92.64;101209.84;5028035;28;20037;-64
2023/09/28 07:42:41;;;;;;;6.07;3.90;;;;;;;18.20;92.57;101210.53;5027682;28;20029;-63
2023/09/28 07:45:07;;;;;;;5.90;3.75;;;;;;;18.28;91.71;101208.56;5027360;28;20254;-60
2023/09/28 07:47:33;;;;;;;6.88;4.15;;;;;;;18.31;91.48;101217.16;5027783;28;20501;-60
2023/09/28 07:49:59;;;;;;;8.20;3.88;;;;;;;18.36;91.12;101222.22;5026842;28;20037;-60
2023/09/28 07:52:25;;;;;;;6.55;3.78;;;;;;;18.46;90.00;101215.81;5031618;28;20084;-60
2023/09/28 07:54:50;;;;;;;5.63;3.67;;;;;;;18.54;89.54;101216.38;5027022;28;20033;-60
2023/09/28 07:57:15;;;;;;;6.97;3.83;;;;;;;18.59;89.57;101222.31;5029992;28;20053;-60
2023/09/28 07:59:41;;;;;;;8.85;3.80;;;;;;;18.65;89.36;101222.09;5029190;28;20068;-60
2023/09/28 08:02:09;;;;;;;5.70;4.10;;;;;;;18.78;87.90;101231.25;5027969;28;20056;-60
2023/09/28 08:04:36;;;;;;;5.97;3.33;;;;;;;18.89;87.19;101226.53;5026677;28;20050;-61
2023/09/28 08:07:01;;;;;;;5.75;3.63;;;;;;;19.03;86.21;101234.75;5027890;28;20172;-62
2023/09/28 08:09:27;;;;;;;5.60;3.72;;;;;;;19.18;85.57;101235.09;5027861;28;20112;-61
2023/09/28 08:11:52;;;;;;;5.43;3.58;;;;;;;19.31;85.13;101234.63;5027174;28;20478;-62
2023/09/28 08:14:18;;;;;;;8.38;3.88;;;;;;;19.38;84.79;101228.25;5027591;28;20504;-60
2023/09/28 08:16:46;;;;;;;5.22;2.97;;;;;;;19.44;84.35;101214.88;5031917;28;20037;-60
2023/09/28 08:19:12;;;;;;;7.63;4.30;;;;;;;19.53;83.37;101214.53;5028907;28;20443;-63
2023/09/28 08:21:38;;;;;;;6.70;3.17;;;;;;;19.60;83.53;101213.41;5034710;28;20025;-60
2023/09/28 08:24:08;;;;;;;7.50;3.53;;;;;;;19.68;83.42;101218.34;5039013;28;20034;-60
2023/09/28 08:26:34;;;;;;;6.97;3.60;;;;;;;19.79;82.87;101205.72;5030885;28;20037;-69
2023/09/28 08:29:00;;;;;;;4.57;3.50;;;;;;;19.89;82.85;101211.47;5028273;28;20037;-62
2023/09/28 08:31:30;;;;;;;7.38;3.70;;;;;;;19.91;82.62;101212.25;5026665;28;20554;-60
2023/09/28 08:33:56;;;;;;;5.80;3.10;;;;;;;19.95;82.31;101221.69;5026263;28;20553;-63
2023/09/28 08:36:21;;;;;;;6.90;3.70;;;;;;;20.05;80.42;101212.53;5027785;28;20048;-64
2023/09/28 08:38:48;;;;;;;8.98;3.85;;;;;;;20.19;79.60;101212.81;5026775;28;20034;-64
2023/09/28 08:41:16;;;;;;;5.30;3.20;;;;;;;20.22;80.23;101212.69;5034587;28;20099;-63
2023/09/28 08:43:43;;;;;;;5.35;3.10;;;;;;;20.27;79.59;101221.28;5020603;28;20117;-64
2023/09/28 08:46:14;;;;;;;6.30;3.25;;;;;;;20.39;78.81;101220.75;5043040;28;20042;-63
2023/09/28 08:48:47;;;;;;;5.45;3.10;;;;;;;20.45;78.70;101223.09;5027437;28;20041;-69
2023/09/28 08:51:13;;;;;;;7.13;3.22;;;;;;;20.53;78.94;101236.78;5033116;28;20038;-68
2023/09/28 08:53:39;;;;;;;5.18;3.25;;;;;;;20.64;78.73;101239.81;5027141;28;20045;-69
2023/09/28 08:56:06;;;;;;;5.60;3.10;;;;;;;20.68;78.91;101235.28;5027363;28;20040;-68
2023/09/28 08:58:36;;;;;;;11.93;4.20;;;;;;;20.83;77.11;101224.16;5033212;28;20849;-64
2023/09/28 09:01:03;;;;;;;8.70;3.35;;;;;;;20.96;77.48;101240.22;5028534;28;20449;-63
2023/09/28 09:03:29;;;;;;;7.25;3.47;;;;;;;20.99;78.19;101242.72;5026858;28;20029;-64
2023/09/28 09:05:56;;;;;;;5.57;3.15;;;;;;;21.02;78.36;101243.44;5026688;28;20029;-63
2023/09/28 09:08:25;;;;;;;8.05;3.75;;;;;;;21.05;78.29;101238.06;5028121;28;20037;-63
2023/09/28 09:10:51;;;;;;;7.35;3.25;;;;;;;21.11;78.26;101243.03;5026259;28;20061;-63
2023/09/28 09:13:19;;;;;;;5.00;3.00;;;;;;;21.16;78.30;101232.34;5026391;28;20571;-63
2023/09/28 09:15:45;;;;;;;11.23;3.35;;;;;;;21.24;78.20;101236.34;5026501;28;20041;-63
2023/09/28 09:18:18;;;;;;;6.95;3.22;;;;;;;21.36;77.14;101221.78;5039997;28;20025;-63
2023/09/28 09:20:47;;;;;;;7.85;3.88;;;;;;;21.41;76.79;101209.25;5027153;28;20863;-64
2023/09/28 09:23:16;;;;;;;7.63;3.75;;;;;;;21.49;76.89;101217.63;5033385;28;20037;-64
2023/09/28 09:25:53;;;;;;;5.63;3.22;;;;;;;21.51;77.09;101222.84;5030490;28;20033;-64
2023/09/28 09:28:28;;;;;;;7.90;3.20;;;;;;;21.60;76.73;101218.06;5039359;28;20037;-64
2023/09/28 09:30:55;;;;;;;5.47;3.35;;;;;;;21.71;76.55;101215.75;5031593;28;20060;-63
2023/09/28 09:33:21;;;;;;;5.03;3.25;;;;;;;21.82;75.92;101211.78;5026612;28;20087;-64
2023/09/28 09:35:46;;;;;;;11.85;4.00;;;;;;;21.94;75.42;101213.81;5031709;28;20119;-64
2023/09/28 09:38:12;;;;;;;9.13;3.45;;;;;;;22.02;75.20;101212.53;5037277;28;20136;-63
2023/09/28 09:40:38;;;;;;;5.55;3.60;;;;;;;22.15;74.69;101218.03;5028928;28;20037;-64
2023/09/28 09:43:07;;;;;;;6.35;3.45;;;;;;;22.19;74.72;101217.81;5029470;28;20026;-63
2023/09/28 09:45:37;;;;;;;5.60;2.92;;;;;;;22.29;74.07;101207.69;5027844;28;20060;-63
2023/09/28 09:48:03;;;;;;;8.70;3.85;;;;;;;22.38;73.44;101201.09;5025409;28;20044;-63
2023/09/28 09:50:31;;;;;;;5.80;3.38;;;;;;;22.38;73.47;101207.28;5025701;28;20038;-64
2023/09/28 09:52:57;;;;;;;6.40;3.63;;;;;;;22.35;72.44;101205.56;5036353;28;20049;-64
2023/09/28 09:55:23;;;;;;;8.50;3.58;;;;;;;22.46;72.47;101210.38;5034970;28;20037;-63
2023/09/28 09:57:48;;;;;;;9.55;3.72;;;;;;;22.58;72.54;101217.66;5033952;28;20044;-63
2023/09/28 10:00:18;;;;;;;7.10;3.53;;;;;;;22.68;71.92;101208.31;5033763;28;20033;-60
2023/09/28 10:02:46;;;;;;;5.40;3.45;;;;;;;22.78;71.52;101206.06;5022804;28;20037;-60
2023/09/28 10:05:15;;;;;;;7.25;3.67;;;;;;;22.94;70.92;101187.69;5033539;28;20119;-60
2023/09/28 10:07:42;;;;;;;7.93;3.55;;;;;;;23.10;70.53;101189.41;5027758;28;20038;-60
2023/09/28 10:10:08;;;;;;;5.85;3.17;;;;;;;23.11;69.85;101192.91;5026373;28;20049;-60
2023/09/28 10:12:34;;;;;;;5.68;3.08;;;;;;;23.09;69.49;101190.38;5025490;28;20048;-69
2023/09/28 10:15:00;;;;;;;5.40;3.70;;;;;;;23.07;70.08;101200.13;5029463;28;20049;-62
2023/09/28 10:17:26;;;;;;;6.35;3.47;;;;;;;23.12;70.75;101208.66;5035171;28;20529;-61
2023/09/28 10:19:56;;;;;;;6.25;3.65;;;;;;;23.20;70.09;101195.09;5028712;28;20099;-62
2023/09/28 10:22:22;;;;;;;8.35;3.47;;;;;;;23.29;70.19;101200.72;5029478;28;20127;-62
2023/09/28 10:24:48;;;;;;;5.43;3.45;;;;;;;23.37;69.20;101176.56;5028912;28;20400;-62
2023/09/28 10:27:13;;;;;;;5.07;3.13;;;;;;;23.34;69.47;101198.69;5012740;28;20110;-62
2023/09/28 10:29:40;;;;;;;10.05;3.65;;;;;;;23.38;68.73;101189.69;5032476;28;20539;-62
2023/09/28 10:32:15;;;;;;;7.30;3.85;;;;;;;23.29;68.36;101187.53;5029512;28;20043;-62
2023/09/28 10:34:43;;;;;;;9.25;3.92;;;;;;;23.14;69.27;101205.94;5027515;28;20048;-62
2023/09/28 10:37:10;;;;;;;6.38;4.20;;;;;;;23.12;69.55;101207.81;5029555;28;20063;-69
2023/09/28 10:39:38;;;;;;;7.80;3.70;;;;;;;23.17;69.63;101209.25;5033601;28;20037;-63
2023/09/28 10:42:08;;;;;;;7.15;3.80;;;;;;;23.23;69.65;101198.41;5023137;28;20034;-60
2023/09/28 10:44:33;;;;;;;5.93;3.40;;;;;;;23.26;68.91;101190.34;5030343;28;20033;-60
2023/09/28 10:46:58;;;;;;;5.63;3.28;;;;;;;23.28;68.66;101185.81;5028287;28;20044;-60
2023/09/28 10:49:26;;;;;;;6.68;3.50;;;;;;;23.32;69.36;101190.00;5037671;28;20038;-60
2023/09/28 10:51:52;;;;;;;8.20;3.85;;;;;;;23.38;69.58;101202.88;5035303;28;20040;-60
2023/09/28 10:54:18;;;;;;;6.95;3.45;;;;;;;23.49;69.56;101206.69;5029549;28;20045;-60
2023/09/28 10:56:48;;;;;;;8.70;4.07;;;;;;;23.56;68.33;101190.44;5028422;28;20045;-60
2023/09/28 10:59:14;;;;;;;7.40;3.90;;;;;;;23.66;68.24;101185.53;5030383;28;20033;-60
2023/09/28 11:01:45;;;;;;;6.68;3.25;;;;;;;23.68;68.92;101200.34;5028763;28;20103;-62
2023/09/28 11:04:12;;;;;;;5.65;3.25;;;;;;;23.77;69.16;101199.81;5028828;28;20040;-60
2023/09/28 11:06:38;;;;;;;7.80;3.70;;;;;;;23.79;67.96;101184.72;5028675;28;20040;-60
2023/09/28 11:09:05;;;;;;;8.57;3.47;;;;;;;23.82;67.79;101179.28;5029128;28;20041;-69
2023/09/28 11:11:30;;;;;;;8.50;3.72;;;;;;;23.89;67.05;101171.88;5028428;28;20179;-60
2023/09/28 11:13:57;;;;;;;6.43;2.92;;;;;;;23.92;66.90;101169.91;5027843;28;20193;-63
2023/09/28 11:16:23;;;;;;;7.57;3.97;;;;;;;23.94;67.97;101173.34;5032865;28;20072;-69
2023/09/28 11:18:49;;;;;;;9.20;4.57;;;;;;;23.89;67.59;101169.22;5032372;28;20041;-60
2023/09/28 11:21:15;;;;;;;8.10;3.97;;;;;;;23.78;68.04;101168.97;5029897;28;20039;-60
2023/09/28 11:23:41;;;;;;;7.35;4.20;;;;;;;23.91;68.39;101180.53;5030056;28;20414;-69
2023/09/28 11:26:09;;;;;;;9.45;4.82;;;;;;;23.78;67.35;101153.97;5028300;28;20072;-69
2023/09/28 11:28:34;;;;;;;6.85;4.13;;;;;;;23.62;67.96;101163.72;5027847;28;20045;-69
2023/09/28 11:31:11;;;;;;;8.10;4.50;;;;;;;23.36;67.92;101167.78;5035611;28;20079;-69
2023/09/28 11:33:42;;;;;;;7.13;4.70;;;;;;;23.33;68.74;101178.50;5027959;28;20032;-69
2023/09/28 11:36:21;;;;;;;10.88;4.18;;;;;;;23.39;69.80;101195.81;5033043;28;20392;-69
2023/09/28 11:38:47;;;;;;;6.97;3.90;;;;;;;23.40;68.83;101181.66;5027059;28;20040;-69
2023/09/28 11:41:13;;;;;;;10.77;4.50;;;;;;;23.45;68.16;101174.38;5040413;28;20029;-68
2023/09/28 11:43:52;;;;;;;10.02;5.22;;;;;;;23.44;68.19;101173.50;5031428;28;20036;-69
2023/09/28 11:46:28;;;;;;;8.38;4.25;;;;;;;23.49;68.57;101167.97;5028281;28;20099;-60
2023/09/28 11:49:09;;;;;;;7.82;4.20;;;;;;;23.57;67.62;101144.63;5027213;28;20029;-60
2023/09/28 11:51:35;;;;;;;7.43;4.07;;;;;;;23.62;67.45;101139.09;5026942;28;20044;-69
2023/09/28 11:54:06;;;;;;;8.32;4.10;;;;;;;23.61;67.89;101145.31;5027908;28;20037;-69
2023/09/28 11:56:31;;;;;;;9.65;4.53;;;;;;;23.63;68.07;101141.66;5027505;28;20667;-69
2023/09/28 11:58:57;;;;;;;11.18;3.90;;;;;;;23.60;68.26;101139.19;5027342;28;20033;-69
2023/09/28 12:01:23;;;;;;;8.65;3.95;;;;;;;23.68;68.23;101142.25;5029762;28;20066;-69
2023/09/28 12:03:48;;;;;;;10.95;4.70;;;;;;;23.78;68.45;101137.28;5027738;28;20037;-68
2023/09/28 12:06:16;;;;;;;7.55;3.80;;;;;;;23.84;67.73;101142.22;5027368;28;20400;-61
2023/09/28 12:08:41;;;;;;;6.38;4.03;;;;;;;23.75;67.32;101127.75;5032182;28;20519;-62
2023/09/28 12:11:07;;;;;;;10.93;4.50;;;;;;;23.79;67.37;101131.94;5036779;28;20092;-62
2023/09/28 12:13:33;;;;;;;9.05;4.20;;;;;;;23.84;68.20;101137.78;5026120;28;20048;-61
2023/09/28 12:16:00;;;;;;;8.65;4.15;;;;;;;23.81;66.67;101098.38;5028385;28;20396;-61
2023/09/28 12:18:26;;;;;;;7.28;3.85;;;;;;;23.79;67.32;101102.91;5042720;28;20034;-64
2023/09/28 12:20:51;;;;;;;10.82;4.78;;;;;;;23.88;67.25;101107.66;5028979;28;20188;-64
2023/09/28 12:23:17;;;;;;;9.65;4.75;;;;;;;23.88;67.95;101123.50;5027885;28;20567;-64
2023/09/28 12:25:42;;;;;;;11.48;4.00;;;;;;;23.90;68.31;101123.38;5027135;28;20587;-63
2023/09/28 12:28:08;;;;;;;9.30;4.22;;;;;;;23.90;68.62;101133.94;5026874;28;20045;-63
2023/09/28 12:30:33;;;;;;;10.95;4.20;;;;;;;23.85;68.25;101123.66;5035190;28;20128;-62
2023/09/28 12:33:01;;;;;;;10.50;4.50;;;;;;;23.82;67.51;101104.50;5030656;28;20479;-68
2023/09/28 12:35:27;;;;;;;7.68;4.18;;;;;;;23.85;67.74;101115.75;5036867;28;20037;-69
2023/09/28 12:37:53;;;;;;;10.98;5.38;;;;;;;23.71;68.90;101143.88;5039157;28;20044;-69
2023/09/28 12:40:19;;;;;;;9.45;4.50;;;;;;;23.71;68.50;101136.81;5031302;28;20033;-69
2023/09/28 12:42:44;;;;;;;7.28;3.92;;;;;;;23.82;66.78;101100.09;5020468;28;20033;-68
2023/09/28 12:45:10;;;;;;;10.02;4.65;;;;;;;23.93;66.99;101105.56;5029237;28;20041;-69
2023/09/28 12:47:36;;;;;;;8.23;4.07;;;;;;;24.05;66.61;101098.75;5026634;28;20037;-69
2023/09/28 12:50:04;;;;;;;9.50;3.95;;;;;;;24.17;65.99;101091.91;5027438;28;20119;-69
2023/09/28 12:52:30;;;;;;;7.78;4.43;;;;;;;24.21;65.33;101078.44;5027005;28;20052;-69
2023/09/28 12:54:55;;;;;;;8.85;4.35;;;;;;;24.35;65.06;101072.31;5026720;28;20396;-69
2023/09/28 12:57:21;;;;;;;7.85;4.68;;;;;;;24.45;64.91;101070.81;5028671;28;20366;-69
2023/09/28 12:59:47;;;;;;;6.95;3.90;;;;;;;24.41;65.50;101082.50;5026113;28;20396;-60
2023/09/28 13:02:14;;;;;;;8.68;4.32;;;;;;;24.44;65.88;101084.97;5027524;28;20045;-64
2023/09/28 13:04:39;;;;;;;9.70;4.30;;;;;;;24.28;65.10;101071.84;5026557;28;20068;-64
2023/09/28 13:07:04;;;;;;;8.55;4.00;;;;;;;24.39;65.25;101072.06;5027378;28;20072;-69
2023/09/28 13:09:32;;;;;;;7.50;4.43;;;;;;;24.37;65.34;101076.56;5026061;28;20037;-60
2023/09/28 13:11:57;;;;;;;10.40;4.03;;;;;;;24.42;65.19;101077.16;5025722;28;20045;-60
2023/09/28 13:14:25;;;;;;;10.07;3.83;;;;;;;24.38;65.27;101077.41;5026021;28;20091;-60
2023/09/28 13:16:55;;;;;;;6.18;3.63;;;;;;;24.31;64.19;101055.78;5030136;28;20045;-60
2023/09/28 13:19:25;;;;;;;9.35;3.38;;;;;;;24.27;64.86;101056.09;5036344;28;20032;-61
2023/09/28 13:21:56;;;;;;;5.25;3.17;;;;;;;24.32;65.16;101065.41;5026486;28;20051;-60
2023/09/28 13:24:23;;;;;;;7.75;3.95;;;;;;;24.39;62.77;101021.84;5027640;28;20017;-60
2023/09/28 13:26:49;;;;;;;9.25;3.90;;;;;;;24.40;62.84;101009.47;5025900;28;20368;-60
2023/09/28 13:29:17;;;;;;;8.85;3.78;;;;;;;24.44;63.26;101027.69;5026950;28;20124;-60
2023/09/28 13:31:47;;;;;;;6.40;3.50;;;;;;;24.47;64.29;101035.41;5025398;28;20037;-60
2023/09/28 13:34:14;;;;;;;8.25;3.50;;;;;;;24.49;64.39;101040.63;5049933;28;20436;-60
2023/09/28 13:36:40;;;;;;;6.57;4.00;;;;;;;24.45;64.52;101052.31;5026324;28;20029;-63
2023/09/28 13:39:06;;;;;;;8.38;3.90;;;;;;;24.51;64.02;101049.31;5027416;28;20079;-61
2023/09/28 13:41:31;;;;;;;6.72;3.95;;;;;;;24.52;64.70;101051.84;5023906;28;20191;-60
2023/09/28 13:43:58;;;;;;;6.25;3.63;;;;;;;24.59;63.93;101049.69;5021997;28;20518;-60
2023/09/28 13:46:23;;;;;;;8.98;4.07;;;;;;;24.72;63.79;101044.50;5027961;28;20029;-60
2023/09/28 13:48:49;;;;;;;6.90;3.75;;;;;;;24.89;63.26;101025.78;5029110;28;20207;-60
2023/09/28 13:51:14;;;;;;;8.45;4.05;;;;;;;24.96;62.54;101009.44;5031857;28;20500;-60
2023/09/28 13:53:39;;;;;;;8.73;4.32;;;;;;;25.00;62.74;101020.66;5028653;28;20052;-61
2023/09/28 13:56:06;;;;;;;6.38;4.10;;;;;;;24.90;62.72;101019.56;5030967;28;20041;-60
2023/09/28 13:58:32;;;;;;;7.72;4.15;;;;;;;24.90;63.30;101032.78;5032589;28;20838;-60
2023/09/28 14:00:58;;;;;;;11.02;4.32;;;;;;;24.89;62.47;101026.63;5029662;28;20037;-60
2023/09/28 14:03:24;;;;;;;6.88;3.80;;;;;;;24.83;62.51;101007.66;5031040;28;20402;-60
2023/09/28 14:05:51;;;;;;;9.32;4.47;;;;;;;24.70;63.04;101023.44;5028426;28;20612;-60
2023/09/28 14:08:16;;;;;;;8.48;3.60;;;;;;;24.59;63.52;101038.25;5029418;28;20754;-60
2023/09/28 14:10:41;;;;;;;11.32;4.03;;;;;;;24.60;63.72;101039.94;5030992;28;20041;-60
2023/09/28 14:13:07;;;;;;;8.98;3.95;;;;;;;24.48;65.08;101053.00;5029950;28;20463;-60
2023/09/28 14:15:33;;;;;;;9.77;3.88;;;;;;;24.47;65.17;101055.72;5030209;28;20035;-60
2023/09/28 14:17:59;;;;;;;8.18;4.60;;;;;;;24.43;64.64;101057.69;5028825;28;20172;-63
2023/09/28 14:20:25;;;;;;;9.82;3.88;;;;;;;24.37;64.58;101044.84;5035101;28;20559;-69
2023/09/28 14:22:51;;;;;;;7.78;3.70;;;;;;;24.36;64.61;101055.53;5036216;28;20523;-70
2023/09/28 14:25:17;;;;;;;11.20;4.25;;;;;;;24.38;64.55;101050.97;5032729;28;20049;-70
2023/09/28 14:27:45;;;;;;;7.75;3.72;;;;;;;24.45;64.32;101041.75;5039571;28;20028;-69
2023/09/28 14:30:13;;;;;;;9.27;3.80;;;;;;;24.54;65.21;101057.03;5032499;28;20148;-64
2023/09/28 14:32:39;;;;;;;6.32;3.95;;;;;;;24.52;65.17;101046.56;5036869;28;20029;-64
2023/09/28 14:35:06;;;;;;;9.18;4.80;;;;;;;24.55;64.49;101029.69;5031925;28;20059;-64
2023/09/28 14:37:34;;;;;;;10.15;3.90;;;;;;;24.57;64.50;101035.72;5032156;28;20037;-64